sensor_id;sensor_type;location;lat;lon;timestamp;P1;durP1;ratioP1;P2;durP2;ratioP2
25111;SDS011;13092;51.996;4.458;2022-09-09T00:00:25;29.55;;;27.15;;
25111;SDS011;13092;51.996;4.458;2022-09-09T00:02:57;29.90;;;27.60;;
25111;SDS011;13092;51.996;4.458;2022-09-09T00:05:31;29.58;;;27.35;;
25111;SDS011;13092;51.996;4.458;2022-09-09T00:08:06;30.13;;;27.83;;
25111;SDS011;13092;51.996;4.458;2022-09-09T00:10:43;31.40;;;28.90;;
25111;SDS011;13092;51.996;4.458;2022-09-09T00:13:13;31.38;;;28.80;;
25111;SDS011;13092;51.996;4.458;2022-09-09T00:15:49;29.55;;;27.45;;
25111;SDS011;13092;51.996;4.458;2022-09-09T00:18:27;31.45;;;29.15;;
25111;SDS011;13092;51.996;4.458;2022-09-09T00:21:01;30.20;;;27.90;;
25111;SDS011;13092;51.996;4.458;2022-09-09T00:23:34;30.15;;;28.00;;
25111;SDS011;13092;51.996;4.458;2022-09-09T00:26:08;29.98;;;27.35;;
25111;SDS011;13092;51.996;4.458;2022-09-09T00:28:42;29.92;;;27.55;;
25111;SDS011;13092;51.996;4.458;2022-09-09T00:31:16;29.10;;;26.75;;
25111;SDS011;13092;51.996;4.458;2022-09-09T00:33:51;31.45;;;28.98;;
25111;SDS011;13092;51.996;4.458;2022-09-09T00:36:21;31.45;;;28.77;;
25111;SDS011;13092;51.996;4.458;2022-09-09T00:38:55;31.50;;;29.10;;
25111;SDS011;13092;51.996;4.458;2022-09-09T00:41:29;31.42;;;28.95;;
25111;SDS011;13092;51.996;4.458;2022-09-09T00:44:13;30.08;;;27.67;;
25111;SDS011;13092;51.996;4.458;2022-09-09T00:46:56;31.45;;;28.92;;
25111;SDS011;13092;51.996;4.458;2022-09-09T00:49:39;31.45;;;28.80;;
25111;SDS011;13092;51.996;4.458;2022-09-09T00:52:22;30.92;;;28.63;;
25111;SDS011;13092;51.996;4.458;2022-09-09T00:55:02;31.70;;;28.80;;
25111;SDS011;13092;51.996;4.458;2022-09-09T00:57:36;31.05;;;28.40;;
25111;SDS011;13092;51.996;4.458;2022-09-09T01:00:17;31.05;;;28.33;;
25111;SDS011;13092;51.996;4.458;2022-09-09T01:02:52;30.63;;;27.77;;
25111;SDS011;13092;51.996;4.458;2022-09-09T01:05:43;31.08;;;28.45;;
25111;SDS011;13092;51.996;4.458;2022-09-09T01:08:22;29.30;;;26.75;;
25111;SDS011;13092;51.996;4.458;2022-09-09T01:11:02;29.95;;;27.55;;
25111;SDS011;13092;51.996;4.458;2022-09-09T01:13:31;29.83;;;27.42;;
25111;SDS011;13092;51.996;4.458;2022-09-09T01:16:03;27.67;;;25.65;;
25111;SDS011;13092;51.996;4.458;2022-09-09T01:18:35;28.08;;;25.77;;
25111;SDS011;13092;51.996;4.458;2022-09-09T01:21:09;28.10;;;25.83;;
25111;SDS011;13092;51.996;4.458;2022-09-09T01:24:00;26.80;;;24.80;;
25111;SDS011;13092;51.996;4.458;2022-09-09T01:26:42;25.77;;;23.70;;
25111;SDS011;13092;51.996;4.458;2022-09-09T01:29:11;26.55;;;24.23;;
25111;SDS011;13092;51.996;4.458;2022-09-09T01:31:41;24.90;;;23.15;;
25111;SDS011;13092;51.996;4.458;2022-09-09T01:34:19;24.77;;;22.77;;
25111;SDS011;13092;51.996;4.458;2022-09-09T01:36:49;25.23;;;23.33;;
25111;SDS011;13092;51.996;4.458;2022-09-09T01:39:24;25.35;;;23.15;;
25111;SDS011;13092;51.996;4.458;2022-09-09T01:41:54;24.38;;;22.58;;
25111;SDS011;13092;51.996;4.458;2022-09-09T01:44:24;24.83;;;23.02;;
25111;SDS011;13092;51.996;4.458;2022-09-09T01:46:53;25.23;;;23.10;;
25111;SDS011;13092;51.996;4.458;2022-09-09T01:49:21;23.30;;;21.50;;
25111;SDS011;13092;51.996;4.458;2022-09-09T01:51:50;24.25;;;22.50;;
25111;SDS011;13092;51.996;4.458;2022-09-09T01:54:22;24.42;;;22.55;;
25111;SDS011;13092;51.996;4.458;2022-09-09T01:56:57;23.77;;;21.98;;
25111;SDS011;13092;51.996;4.458;2022-09-09T01:59:45;23.77;;;22.08;;
25111;SDS011;13092;51.996;4.458;2022-09-09T02:02:22;23.58;;;21.98;;
25111;SDS011;13092;51.996;4.458;2022-09-09T02:04:54;25.02;;;23.08;;
25111;SDS011;13092;51.996;4.458;2022-09-09T02:07:32;24.17;;;22.27;;
25111;SDS011;13092;51.996;4.458;2022-09-09T02:10:08;24.10;;;22.38;;
25111;SDS011;13092;51.996;4.458;2022-09-09T02:12:41;24.08;;;22.17;;
25111;SDS011;13092;51.996;4.458;2022-09-09T02:15:16;23.60;;;21.77;;
25111;SDS011;13092;51.996;4.458;2022-09-09T02:17:49;23.42;;;21.63;;
25111;SDS011;13092;51.996;4.458;2022-09-09T02:20:19;22.48;;;20.73;;
25111;SDS011;13092;51.996;4.458;2022-09-09T02:22:50;22.23;;;20.27;;
25111;SDS011;13092;51.996;4.458;2022-09-09T02:25:22;22.25;;;20.55;;
25111;SDS011;13092;51.996;4.458;2022-09-09T02:27:54;22.80;;;21.00;;
25111;SDS011;13092;51.996;4.458;2022-09-09T02:30:24;22.67;;;20.77;;
25111;SDS011;13092;51.996;4.458;2022-09-09T02:32:55;21.63;;;20.05;;
25111;SDS011;13092;51.996;4.458;2022-09-09T02:35:25;22.08;;;20.38;;
25111;SDS011;13092;51.996;4.458;2022-09-09T02:37:57;22.08;;;20.15;;
25111;SDS011;13092;51.996;4.458;2022-09-09T02:40:32;22.92;;;21.23;;
25111;SDS011;13092;51.996;4.458;2022-09-09T02:43:02;22.50;;;20.85;;
25111;SDS011;13092;51.996;4.458;2022-09-09T02:45:31;21.25;;;19.55;;
25111;SDS011;13092;51.996;4.458;2022-09-09T02:48:06;20.98;;;19.27;;
25111;SDS011;13092;51.996;4.458;2022-09-09T02:50:43;22.23;;;20.42;;
25111;SDS011;13092;51.996;4.458;2022-09-09T02:53:20;22.80;;;20.80;;
25111;SDS011;13092;51.996;4.458;2022-09-09T02:55:52;22.52;;;20.63;;
25111;SDS011;13092;51.996;4.458;2022-09-09T02:58:26;24.13;;;21.77;;
25111;SDS011;13092;51.996;4.458;2022-09-09T03:00:55;23.52;;;21.20;;
25111;SDS011;13092;51.996;4.458;2022-09-09T03:03:25;23.92;;;21.92;;
25111;SDS011;13092;51.996;4.458;2022-09-09T03:05:53;23.38;;;21.52;;
25111;SDS011;13092;51.996;4.458;2022-09-09T03:08:22;22.30;;;20.55;;
25111;SDS011;13092;51.996;4.458;2022-09-09T03:10:50;23.95;;;22.05;;
25111;SDS011;13092;51.996;4.458;2022-09-09T03:13:20;23.98;;;21.80;;
25111;SDS011;13092;51.996;4.458;2022-09-09T03:15:49;23.33;;;21.27;;
25111;SDS011;13092;51.996;4.458;2022-09-09T03:18:17;22.90;;;20.75;;
25111;SDS011;13092;51.996;4.458;2022-09-09T03:20:46;22.67;;;20.92;;
25111;SDS011;13092;51.996;4.458;2022-09-09T03:23:15;22.88;;;20.95;;
25111;SDS011;13092;51.996;4.458;2022-09-09T03:25:46;21.38;;;19.55;;
25111;SDS011;13092;51.996;4.458;2022-09-09T03:28:15;23.23;;;21.38;;
25111;SDS011;13092;51.996;4.458;2022-09-09T03:30:43;23.65;;;21.85;;
25111;SDS011;13092;51.996;4.458;2022-09-09T03:33:12;25.42;;;20.98;;
25111;SDS011;13092;51.996;4.458;2022-09-09T03:35:44;22.27;;;20.65;;
25111;SDS011;13092;51.996;4.458;2022-09-09T03:38:15;21.85;;;20.02;;
25111;SDS011;13092;51.996;4.458;2022-09-09T03:40:48;22.52;;;20.80;;
25111;SDS011;13092;51.996;4.458;2022-09-09T03:43:17;23.27;;;21.38;;
25111;SDS011;13092;51.996;4.458;2022-09-09T03:45:46;22.05;;;20.35;;
25111;SDS011;13092;51.996;4.458;2022-09-09T03:48:16;20.65;;;19.02;;
25111;SDS011;13092;51.996;4.458;2022-09-09T03:50:45;21.83;;;19.85;;
25111;SDS011;13092;51.996;4.458;2022-09-09T03:53:13;21.80;;;20.10;;
25111;SDS011;13092;51.996;4.458;2022-09-09T03:55:43;20.90;;;19.20;;
25111;SDS011;13092;51.996;4.458;2022-09-09T03:58:12;22.88;;;21.00;;
25111;SDS011;13092;51.996;4.458;2022-09-09T04:00:40;21.88;;;20.13;;
25111;SDS011;13092;51.996;4.458;2022-09-09T04:03:11;20.92;;;19.23;;
25111;SDS011;13092;51.996;4.458;2022-09-09T04:05:41;22.38;;;20.75;;
25111;SDS011;13092;51.996;4.458;2022-09-09T04:08:09;22.50;;;20.63;;
25111;SDS011;13092;51.996;4.458;2022-09-09T04:10:37;23.63;;;21.67;;
25111;SDS011;13092;51.996;4.458;2022-09-09T04:13:05;22.48;;;20.67;;
25111;SDS011;13092;51.996;4.458;2022-09-09T04:15:33;23.08;;;21.48;;
25111;SDS011;13092;51.996;4.458;2022-09-09T04:18:02;22.48;;;20.83;;
25111;SDS011;13092;51.996;4.458;2022-09-09T04:20:32;25.33;;;23.15;;
25111;SDS011;13092;51.996;4.458;2022-09-09T04:23:01;25.77;;;23.48;;
25111;SDS011;13092;51.996;4.458;2022-09-09T04:25:29;24.70;;;22.60;;
25111;SDS011;13092;51.996;4.458;2022-09-09T04:27:57;25.23;;;23.05;;
25111;SDS011;13092;51.996;4.458;2022-09-09T04:30:25;25.60;;;23.55;;
25111;SDS011;13092;51.996;4.458;2022-09-09T04:32:54;25.20;;;23.15;;
25111;SDS011;13092;51.996;4.458;2022-09-09T04:35:23;24.90;;;22.77;;
25111;SDS011;13092;51.996;4.458;2022-09-09T04:37:53;24.48;;;22.58;;
25111;SDS011;13092;51.996;4.458;2022-09-09T04:40:22;25.45;;;23.23;;
25111;SDS011;13092;51.996;4.458;2022-09-09T04:42:51;24.92;;;23.08;;
25111;SDS011;13092;51.996;4.458;2022-09-09T04:45:19;25.23;;;23.27;;
25111;SDS011;13092;51.996;4.458;2022-09-09T04:47:47;24.30;;;22.13;;
25111;SDS011;13092;51.996;4.458;2022-09-09T04:50:15;24.20;;;22.42;;
25111;SDS011;13092;51.996;4.458;2022-09-09T04:52:43;24.55;;;22.55;;
25111;SDS011;13092;51.996;4.458;2022-09-09T04:55:11;24.70;;;22.77;;
25111;SDS011;13092;51.996;4.458;2022-09-09T04:57:41;24.50;;;22.60;;
25111;SDS011;13092;51.996;4.458;2022-09-09T05:00:09;24.20;;;22.30;;
25111;SDS011;13092;51.996;4.458;2022-09-09T05:02:39;24.60;;;22.70;;
25111;SDS011;13092;51.996;4.458;2022-09-09T05:05:08;24.58;;;22.45;;
25111;SDS011;13092;51.996;4.458;2022-09-09T05:07:37;24.42;;;22.42;;
25111;SDS011;13092;51.996;4.458;2022-09-09T05:10:05;25.13;;;22.85;;
25111;SDS011;13092;51.996;4.458;2022-09-09T05:12:34;27.05;;;24.83;;
25111;SDS011;13092;51.996;4.458;2022-09-09T05:15:04;24.98;;;22.83;;
25111;SDS011;13092;51.996;4.458;2022-09-09T05:17:33;24.48;;;22.55;;
25111;SDS011;13092;51.996;4.458;2022-09-09T05:20:01;24.92;;;22.75;;
25111;SDS011;13092;51.996;4.458;2022-09-09T05:22:35;24.27;;;22.48;;
25111;SDS011;13092;51.996;4.458;2022-09-09T05:25:04;24.73;;;22.73;;
25111;SDS011;13092;51.996;4.458;2022-09-09T05:27:33;24.45;;;22.35;;
25111;SDS011;13092;51.996;4.458;2022-09-09T05:30:01;23.52;;;21.58;;
25111;SDS011;13092;51.996;4.458;2022-09-09T05:32:32;23.48;;;21.63;;
25111;SDS011;13092;51.996;4.458;2022-09-09T05:35:00;23.13;;;21.27;;
25111;SDS011;13092;51.996;4.458;2022-09-09T05:37:30;23.40;;;21.52;;
25111;SDS011;13092;51.996;4.458;2022-09-09T05:39:58;23.15;;;20.88;;
25111;SDS011;13092;51.996;4.458;2022-09-09T05:42:29;23.30;;;21.13;;
25111;SDS011;13092;51.996;4.458;2022-09-09T05:44:58;22.50;;;20.50;;
25111;SDS011;13092;51.996;4.458;2022-09-09T05:47:26;21.73;;;19.92;;
25111;SDS011;13092;51.996;4.458;2022-09-09T05:49:56;21.42;;;19.73;;
25111;SDS011;13092;51.996;4.458;2022-09-09T05:52:24;22.50;;;20.30;;
25111;SDS011;13092;51.996;4.458;2022-09-09T05:54:53;21.10;;;19.25;;
25111;SDS011;13092;51.996;4.458;2022-09-09T05:57:23;21.75;;;19.85;;
25111;SDS011;13092;51.996;4.458;2022-09-09T05:59:51;21.75;;;19.60;;
25111;SDS011;13092;51.996;4.458;2022-09-09T06:02:20;21.30;;;19.50;;
25111;SDS011;13092;51.996;4.458;2022-09-09T06:04:48;22.40;;;20.58;;
25111;SDS011;13092;51.996;4.458;2022-09-09T06:07:18;22.60;;;20.50;;
25111;SDS011;13092;51.996;4.458;2022-09-09T06:09:46;22.50;;;19.88;;
25111;SDS011;13092;51.996;4.458;2022-09-09T06:12:14;22.98;;;20.63;;
25111;SDS011;13092;51.996;4.458;2022-09-09T06:14:42;23.10;;;21.00;;
25111;SDS011;13092;51.996;4.458;2022-09-09T06:17:13;22.55;;;20.50;;
25111;SDS011;13092;51.996;4.458;2022-09-09T06:19:41;23.23;;;21.13;;
25111;SDS011;13092;51.996;4.458;2022-09-09T06:22:09;21.02;;;19.00;;
25111;SDS011;13092;51.996;4.458;2022-09-09T06:24:39;21.17;;;19.38;;
25111;SDS011;13092;51.996;4.458;2022-09-09T06:27:07;22.77;;;20.88;;
25111;SDS011;13092;51.996;4.458;2022-09-09T06:29:37;23.50;;;21.02;;
25111;SDS011;13092;51.996;4.458;2022-09-09T06:32:05;22.67;;;20.77;;
25111;SDS011;13092;51.996;4.458;2022-09-09T06:34:34;22.73;;;20.77;;
25111;SDS011;13092;51.996;4.458;2022-09-09T06:37:02;23.65;;;20.52;;
25111;SDS011;13092;51.996;4.458;2022-09-09T06:39:32;23.15;;;21.15;;
25111;SDS011;13092;51.996;4.458;2022-09-09T06:42:02;23.88;;;21.67;;
25111;SDS011;13092;51.996;4.458;2022-09-09T06:44:30;23.08;;;21.13;;
25111;SDS011;13092;51.996;4.458;2022-09-09T06:47:00;25.65;;;23.27;;
25111;SDS011;13092;51.996;4.458;2022-09-09T06:49:29;23.70;;;21.70;;
25111;SDS011;13092;51.996;4.458;2022-09-09T06:51:57;23.50;;;21.45;;
25111;SDS011;13092;51.996;4.458;2022-09-09T06:54:25;23.10;;;21.20;;
25111;SDS011;13092;51.996;4.458;2022-09-09T06:56:54;22.80;;;20.77;;
25111;SDS011;13092;51.996;4.458;2022-09-09T06:59:24;22.33;;;20.55;;
25111;SDS011;13092;51.996;4.458;2022-09-09T07:01:52;23.63;;;21.52;;
25111;SDS011;13092;51.996;4.458;2022-09-09T07:04:21;22.70;;;20.70;;
25111;SDS011;13092;51.996;4.458;2022-09-09T07:06:49;23.40;;;21.08;;
25111;SDS011;13092;51.996;4.458;2022-09-09T07:09:18;25.50;;;22.95;;
25111;SDS011;13092;51.996;4.458;2022-09-09T07:11:48;23.67;;;21.70;;
25111;SDS011;13092;51.996;4.458;2022-09-09T07:14:19;23.38;;;21.33;;
25111;SDS011;13092;51.996;4.458;2022-09-09T07:16:49;24.63;;;22.27;;
25111;SDS011;13092;51.996;4.458;2022-09-09T07:19:24;23.73;;;21.63;;
25111;SDS011;13092;51.996;4.458;2022-09-09T07:21:53;25.58;;;23.27;;
25111;SDS011;13092;51.996;4.458;2022-09-09T07:24:20;23.60;;;21.63;;
25111;SDS011;13092;51.996;4.458;2022-09-09T07:26:49;24.48;;;22.25;;
25111;SDS011;13092;51.996;4.458;2022-09-09T07:29:18;24.92;;;22.77;;
25111;SDS011;13092;51.996;4.458;2022-09-09T07:31:46;24.60;;;22.38;;
25111;SDS011;13092;51.996;4.458;2022-09-09T07:34:16;25.83;;;23.52;;
25111;SDS011;13092;51.996;4.458;2022-09-09T07:36:44;24.90;;;23.10;;
25111;SDS011;13092;51.996;4.458;2022-09-09T07:39:13;25.98;;;23.88;;
25111;SDS011;13092;51.996;4.458;2022-09-09T07:41:44;25.75;;;23.48;;
25111;SDS011;13092;51.996;4.458;2022-09-09T07:44:13;25.70;;;23.40;;
25111;SDS011;13092;51.996;4.458;2022-09-09T07:46:43;25.10;;;22.77;;
25111;SDS011;13092;51.996;4.458;2022-09-09T07:49:12;24.30;;;22.10;;
25111;SDS011;13092;51.996;4.458;2022-09-09T07:51:44;25.15;;;23.25;;
25111;SDS011;13092;51.996;4.458;2022-09-09T07:54:15;25.42;;;23.35;;
25111;SDS011;13092;51.996;4.458;2022-09-09T07:56:46;25.70;;;23.60;;
25111;SDS011;13092;51.996;4.458;2022-09-09T07:59:15;26.23;;;23.92;;
25111;SDS011;13092;51.996;4.458;2022-09-09T08:01:45;24.77;;;22.67;;
25111;SDS011;13092;51.996;4.458;2022-09-09T08:04:16;23.30;;;21.40;;
25111;SDS011;13092;51.996;4.458;2022-09-09T08:06:47;26.05;;;23.55;;
25111;SDS011;13092;51.996;4.458;2022-09-09T08:09:17;24.58;;;22.55;;
25111;SDS011;13092;51.996;4.458;2022-09-09T08:11:45;23.45;;;21.55;;
25111;SDS011;13092;51.996;4.458;2022-09-09T08:14:14;22.63;;;20.83;;
25111;SDS011;13092;51.996;4.458;2022-09-09T08:16:43;21.38;;;19.52;;
25111;SDS011;13092;51.996;4.458;2022-09-09T08:19:13;22.63;;;20.73;;
25111;SDS011;13092;51.996;4.458;2022-09-09T08:21:44;22.65;;;20.83;;
25111;SDS011;13092;51.996;4.458;2022-09-09T08:24:16;24.17;;;22.15;;
25111;SDS011;13092;51.996;4.458;2022-09-09T08:26:46;22.95;;;20.88;;
25111;SDS011;13092;51.996;4.458;2022-09-09T08:29:15;23.98;;;21.63;;
25111;SDS011;13092;51.996;4.458;2022-09-09T08:31:45;22.65;;;20.83;;
25111;SDS011;13092;51.996;4.458;2022-09-09T08:34:14;23.52;;;21.10;;
25111;SDS011;13092;51.996;4.458;2022-09-09T08:36:44;22.67;;;21.00;;
25111;SDS011;13092;51.996;4.458;2022-09-09T08:39:15;23.90;;;21.35;;
25111;SDS011;13092;51.996;4.458;2022-09-09T08:41:50;26.05;;;23.48;;
25111;SDS011;13092;51.996;4.458;2022-09-09T08:44:37;24.20;;;22.00;;
25111;SDS011;13092;51.996;4.458;2022-09-09T08:47:16;23.92;;;22.00;;
25111;SDS011;13092;51.996;4.458;2022-09-09T08:49:54;24.42;;;22.33;;
25111;SDS011;13092;51.996;4.458;2022-09-09T08:52:31;26.15;;;23.70;;
25111;SDS011;13092;51.996;4.458;2022-09-09T08:55:13;25.67;;;23.15;;
25111;SDS011;13092;51.996;4.458;2022-09-09T08:57:49;25.60;;;23.05;;
25111;SDS011;13092;51.996;4.458;2022-09-09T09:00:20;25.48;;;23.20;;
25111;SDS011;13092;51.996;4.458;2022-09-09T09:02:49;28.02;;;24.42;;
25111;SDS011;13092;51.996;4.458;2022-09-09T09:05:30;26.17;;;23.52;;
25111;SDS011;13092;51.996;4.458;2022-09-09T09:08:06;25.05;;;22.92;;
25111;SDS011;13092;51.996;4.458;2022-09-09T09:10:45;24.80;;;22.77;;
25111;SDS011;13092;51.996;4.458;2022-09-09T09:13:15;25.33;;;23.30;;
25111;SDS011;13092;51.996;4.458;2022-09-09T09:15:48;25.88;;;23.48;;
25111;SDS011;13092;51.996;4.458;2022-09-09T09:18:20;23.65;;;21.65;;
25111;SDS011;13092;51.996;4.458;2022-09-09T09:20:50;25.42;;;22.77;;
25111;SDS011;13092;51.996;4.458;2022-09-09T09:23:24;24.83;;;22.73;;
25111;SDS011;13092;51.996;4.458;2022-09-09T09:25:58;26.02;;;23.70;;
25111;SDS011;13092;51.996;4.458;2022-09-09T09:28:29;25.33;;;22.92;;
25111;SDS011;13092;51.996;4.458;2022-09-09T09:30:59;23.42;;;21.38;;
25111;SDS011;13092;51.996;4.458;2022-09-09T09:33:32;28.02;;;25.70;;
25111;SDS011;13092;51.996;4.458;2022-09-09T09:36:07;29.83;;;27.35;;
25111;SDS011;13092;51.996;4.458;2022-09-09T09:38:37;30.23;;;27.70;;
25111;SDS011;13092;51.996;4.458;2022-09-09T09:41:30;30.33;;;27.77;;
25111;SDS011;13092;51.996;4.458;2022-09-09T09:43:59;29.30;;;27.05;;
25111;SDS011;13092;51.996;4.458;2022-09-09T09:46:28;29.73;;;27.23;;
25111;SDS011;13092;51.996;4.458;2022-09-09T09:48:58;30.48;;;28.08;;
25111;SDS011;13092;51.996;4.458;2022-09-09T09:51:26;29.92;;;27.48;;
25111;SDS011;13092;51.996;4.458;2022-09-09T09:54:04;28.05;;;25.85;;
25111;SDS011;13092;51.996;4.458;2022-09-09T09:56:41;29.05;;;26.90;;
25111;SDS011;13092;51.996;4.458;2022-09-09T09:59:19;29.65;;;27.30;;
25111;SDS011;13092;51.996;4.458;2022-09-09T10:02:14;30.67;;;28.27;;
25111;SDS011;13092;51.996;4.458;2022-09-09T10:04:47;33.63;;;30.77;;
25111;SDS011;13092;51.996;4.458;2022-09-09T10:07:17;35.35;;;32.30;;
25111;SDS011;13092;51.996;4.458;2022-09-09T10:09:50;35.45;;;32.38;;
25111;SDS011;13092;51.996;4.458;2022-09-09T10:12:24;35.80;;;32.95;;
25111;SDS011;13092;51.996;4.458;2022-09-09T10:15:02;35.05;;;32.33;;
25111;SDS011;13092;51.996;4.458;2022-09-09T10:17:44;35.58;;;32.75;;
25111;SDS011;13092;51.996;4.458;2022-09-09T10:20:24;34.60;;;31.45;;
25111;SDS011;13092;51.996;4.458;2022-09-09T10:23:03;35.33;;;32.47;;
25111;SDS011;13092;51.996;4.458;2022-09-09T10:25:48;32.95;;;30.60;;
25111;SDS011;13092;51.996;4.458;2022-09-09T10:28:42;31.73;;;29.45;;
25111;SDS011;13092;51.996;4.458;2022-09-09T10:31:37;31.33;;;29.02;;
25111;SDS011;13092;51.996;4.458;2022-09-09T10:34:18;31.95;;;29.65;;
25111;SDS011;13092;51.996;4.458;2022-09-09T10:36:56;27.30;;;25.15;;
25111;SDS011;13092;51.996;4.458;2022-09-09T10:39:31;29.48;;;27.27;;
25111;SDS011;13092;51.996;4.458;2022-09-09T10:42:10;29.35;;;27.23;;
25111;SDS011;13092;51.996;4.458;2022-09-09T10:44:53;29.10;;;27.00;;
25111;SDS011;13092;51.996;4.458;2022-09-09T10:47:41;29.95;;;27.73;;
25111;SDS011;13092;51.996;4.458;2022-09-09T10:50:40;28.63;;;26.52;;
25111;SDS011;13092;51.996;4.458;2022-09-09T10:53:35;27.52;;;25.52;;
25111;SDS011;13092;51.996;4.458;2022-09-09T10:56:06;29.15;;;26.95;;
25111;SDS011;13092;51.996;4.458;2022-09-09T10:58:43;29.02;;;26.73;;
25111;SDS011;13092;51.996;4.458;2022-09-09T11:01:17;27.92;;;25.83;;
25111;SDS011;13092;51.996;4.458;2022-09-09T11:04:00;28.42;;;26.25;;
25111;SDS011;13092;51.996;4.458;2022-09-09T11:06:34;28.27;;;26.30;;
25111;SDS011;13092;51.996;4.458;2022-09-09T11:09:09;30.83;;;28.52;;
25111;SDS011;13092;51.996;4.458;2022-09-09T11:11:44;30.45;;;28.45;;
25111;SDS011;13092;51.996;4.458;2022-09-09T11:14:19;31.35;;;29.15;;
25111;SDS011;13092;51.996;4.458;2022-09-09T11:16:53;29.02;;;27.05;;
25111;SDS011;13092;51.996;4.458;2022-09-09T11:19:27;28.80;;;26.80;;
25111;SDS011;13092;51.996;4.458;2022-09-09T11:22:00;29.20;;;27.10;;
25111;SDS011;13092;51.996;4.458;2022-09-09T11:24:31;29.25;;;27.05;;
25111;SDS011;13092;51.996;4.458;2022-09-09T11:27:06;29.73;;;27.63;;
25111;SDS011;13092;51.996;4.458;2022-09-09T11:29:52;29.52;;;27.52;;
25111;SDS011;13092;51.996;4.458;2022-09-09T11:42:24;36.60;;;33.45;;
25111;SDS011;13092;51.996;4.458;2022-09-09T11:44:54;35.40;;;32.85;;
25111;SDS011;13092;51.996;4.458;2022-09-09T11:47:24;38.45;;;35.60;;
25111;SDS011;13092;51.996;4.458;2022-09-09T11:50:06;40.90;;;37.88;;
25111;SDS011;13092;51.996;4.458;2022-09-09T11:53:02;42.72;;;39.35;;
25111;SDS011;13092;51.996;4.458;2022-09-09T11:55:34;41.72;;;38.50;;
25111;SDS011;13092;51.996;4.458;2022-09-09T11:58:03;41.13;;;38.08;;
25111;SDS011;13092;51.996;4.458;2022-09-09T12:00:35;40.88;;;37.92;;
25111;SDS011;13092;51.996;4.458;2022-09-09T12:03:05;41.00;;;37.83;;
25111;SDS011;13092;51.996;4.458;2022-09-09T12:05:53;39.88;;;36.97;;
25111;SDS011;13092;51.996;4.458;2022-09-09T12:08:24;41.20;;;37.97;;
25111;SDS011;13092;51.996;4.458;2022-09-09T12:10:56;40.53;;;37.15;;
25111;SDS011;13092;51.996;4.458;2022-09-09T12:13:26;38.97;;;36.17;;
25111;SDS011;13092;51.996;4.458;2022-09-09T12:15:56;37.55;;;34.58;;
25111;SDS011;13092;51.996;4.458;2022-09-09T12:18:31;37.33;;;34.15;;
25111;SDS011;13092;51.996;4.458;2022-09-09T12:21:02;36.55;;;33.95;;
25111;SDS011;13092;51.996;4.458;2022-09-09T12:23:37;34.60;;;32.10;;
25111;SDS011;13092;51.996;4.458;2022-09-09T12:26:17;34.65;;;32.20;;
25111;SDS011;13092;51.996;4.458;2022-09-09T12:29:06;34.90;;;32.25;;
25111;SDS011;13092;51.996;4.458;2022-09-09T12:31:41;34.05;;;31.60;;
25111;SDS011;13092;51.996;4.458;2022-09-09T12:34:15;35.20;;;32.70;;
25111;SDS011;13092;51.996;4.458;2022-09-09T12:36:52;32.28;;;29.95;;
25111;SDS011;13092;51.996;4.458;2022-09-09T12:39:28;33.13;;;30.83;;
25111;SDS011;13092;51.996;4.458;2022-09-09T12:42:00;32.67;;;30.10;;
25111;SDS011;13092;51.996;4.458;2022-09-09T12:44:30;32.92;;;30.48;;
25111;SDS011;13092;51.996;4.458;2022-09-09T12:47:00;34.58;;;32.15;;
25111;SDS011;13092;51.996;4.458;2022-09-09T12:49:31;33.05;;;30.65;;
25111;SDS011;13092;51.996;4.458;2022-09-09T12:52:03;33.08;;;30.77;;
25111;SDS011;13092;51.996;4.458;2022-09-09T12:54:34;32.85;;;30.55;;
25111;SDS011;13092;51.996;4.458;2022-09-09T12:57:03;32.00;;;29.70;;
25111;SDS011;13092;51.996;4.458;2022-09-09T12:59:36;32.22;;;29.73;;
25111;SDS011;13092;51.996;4.458;2022-09-09T13:02:16;31.88;;;29.65;;
25111;SDS011;13092;51.996;4.458;2022-09-09T13:04:46;30.50;;;28.38;;
25111;SDS011;13092;51.996;4.458;2022-09-09T13:07:17;29.08;;;26.92;;
25111;SDS011;13092;51.996;4.458;2022-09-09T13:09:46;27.48;;;25.42;;
25111;SDS011;13092;51.996;4.458;2022-09-09T13:12:16;26.52;;;24.63;;
25111;SDS011;13092;51.996;4.458;2022-09-09T13:14:47;25.55;;;23.85;;
25111;SDS011;13092;51.996;4.458;2022-09-09T13:17:20;27.25;;;25.35;;
25111;SDS011;13092;51.996;4.458;2022-09-09T13:19:50;27.08;;;25.13;;
25111;SDS011;13092;51.996;4.458;2022-09-09T13:22:20;29.42;;;27.33;;
25111;SDS011;13092;51.996;4.458;2022-09-09T13:25:04;31.98;;;29.45;;
25111;SDS011;13092;51.996;4.458;2022-09-09T13:27:37;33.58;;;31.27;;
25111;SDS011;13092;51.996;4.458;2022-09-09T13:33:03;29.15;;;27.38;;
25111;SDS011;13092;51.996;4.458;2022-09-09T13:35:34;29.55;;;27.55;;
25111;SDS011;13092;51.996;4.458;2022-09-09T13:38:08;29.08;;;26.98;;
25111;SDS011;13092;51.996;4.458;2022-09-09T13:40:37;29.40;;;27.55;;
25111;SDS011;13092;51.996;4.458;2022-09-09T13:43:21;33.13;;;30.92;;
25111;SDS011;13092;51.996;4.458;2022-09-09T13:45:56;36.90;;;34.30;;
25111;SDS011;13092;51.996;4.458;2022-09-09T13:48:28;36.13;;;33.50;;
25111;SDS011;13092;51.996;4.458;2022-09-09T13:50:58;35.35;;;32.72;;
25111;SDS011;13092;51.996;4.458;2022-09-09T13:53:29;34.60;;;32.10;;
25111;SDS011;13092;51.996;4.458;2022-09-09T13:55:57;34.42;;;32.10;;
25111;SDS011;13092;51.996;4.458;2022-09-09T13:58:25;33.45;;;31.05;;
25111;SDS011;13092;51.996;4.458;2022-09-09T14:00:53;33.10;;;30.77;;
25111;SDS011;13092;51.996;4.458;2022-09-09T14:03:21;33.35;;;31.17;;
25111;SDS011;13092;51.996;4.458;2022-09-09T14:05:50;31.52;;;29.42;;
25111;SDS011;13092;51.996;4.458;2022-09-09T14:08:22;30.08;;;27.98;;
25111;SDS011;13092;51.996;4.458;2022-09-09T14:10:52;30.17;;;28.27;;
25111;SDS011;13092;51.996;4.458;2022-09-09T14:13:24;29.00;;;26.90;;
25111;SDS011;13092;51.996;4.458;2022-09-09T14:15:52;27.83;;;26.02;;
25111;SDS011;13092;51.996;4.458;2022-09-09T14:18:20;27.73;;;25.83;;
25111;SDS011;13092;51.996;4.458;2022-09-09T14:20:53;29.55;;;27.35;;
25111;SDS011;13092;51.996;4.458;2022-09-09T14:23:21;27.95;;;25.85;;
25111;SDS011;13092;51.996;4.458;2022-09-09T14:25:50;27.52;;;25.58;;
25111;SDS011;13092;51.996;4.458;2022-09-09T14:28:19;27.63;;;25.73;;
25111;SDS011;13092;51.996;4.458;2022-09-09T14:31:07;26.20;;;24.38;;
25111;SDS011;13092;51.996;4.458;2022-09-09T14:33:36;27.33;;;25.25;;
25111;SDS011;13092;51.996;4.458;2022-09-09T14:36:06;24.85;;;23.08;;
25111;SDS011;13092;51.996;4.458;2022-09-09T14:38:35;25.13;;;23.23;;
25111;SDS011;13092;51.996;4.458;2022-09-09T14:41:06;21.38;;;19.58;;
25111;SDS011;13092;51.996;4.458;2022-09-09T14:43:34;20.80;;;18.90;;
25111;SDS011;13092;51.996;4.458;2022-09-09T14:46:04;21.23;;;19.48;;
25111;SDS011;13092;51.996;4.458;2022-09-09T14:48:33;21.65;;;19.95;;
25111;SDS011;13092;51.996;4.458;2022-09-09T14:51:06;23.42;;;21.48;;
25111;SDS011;13092;51.996;4.458;2022-09-09T14:53:35;22.27;;;20.58;;
25111;SDS011;13092;51.996;4.458;2022-09-09T14:56:05;22.52;;;20.73;;
25111;SDS011;13092;51.996;4.458;2022-09-09T14:58:34;21.40;;;19.88;;
25111;SDS011;13092;51.996;4.458;2022-09-09T15:01:04;23.95;;;22.23;;
25111;SDS011;13092;51.996;4.458;2022-09-09T15:03:33;21.42;;;19.70;;